Aeroporto :







RITROVATECI SU...

 
LOGIN :

Iscrizione | Disclaimer

   EN    FR    IT 

 









Sommario :    VFR   VFR Marginale   IFR   IFR Intensivo   IFR Molto Intensivo
Visibilità : 
Base nubi : 
>= 8 km
>= 3000ft
5 / 8 km
1000 / 3000 ft
1500m / 5 km
500 / 1000 ft
800 / 1500m
200 / 500 ft
< 800m
< 200 ft
Simboli :   Temporali  Nebbia  Neve Forte  Precipitazioni Forti  Vento > 20 kt






- Altitudine del aeroporto : 1005 ft
- Codice IATA : YAH


CYAH - La Grande-4

ULTIMO METAR :
  • 071333Z AUTO 28004KT 240V360 9SM BKN013 M08/M12 A2984 RMK SLP132

METARs OBSOLETI :
  • 071300Z AUTO 29003KT 9SM CLR M10/M13 A2984 RMK SLP133
  • 071240Z AUTO VRB02KT 9SM SCT015 M11/M14 A2984 RMK SLP133
  • 071228Z AUTO 00000KT 9SM BKN015 M12/M15 A2985 RMK SLP136
  • 071200Z AUTO 00000KT 9SM CLR M15/M18 A2985 RMK SLP137
  • 071100Z AUTO 00000KT 9SM SCT017 M17/M19 A2985 RMK SLP136

TAF TAF CYAH
Valido dal 07 a 11 ore il 07 a 21 ore UTC


071038Z 0711/0721 VRB03KT P6SM BKN020
TEMPO 0711/0715 SCT020
FM071500 30006KT P6SM BKN025
TEMPO 0715/0721 P6SM -SN BKN020 RMK FCST BASED ON AUTO OBS. NXT FCST BY 071800Z



MetMap, La meteo Aeronautica in un colpo d'occhio ! - Copyright ORBIFLY Dicembre 2007 - Disclaimer

ORBIFLY MET'MAP TEAM :

Programmazione e sviluppo : Alexandra Zaïnal
Concezione : Baudouin d'Aumeries
Aiuto per la programmazione : Marc-Olivier Méhu
Supporto tecnico e logistico : Manuel Goepfert
Aiuto per la traduzione : Arnaldo La Scala

Contatto : metmap@orbifly.com




FONTI E CREDITI :

   NOAA